Bay Bridge — 3FCS5 — position and weather

sailwx.info

Track history (hours):
 
Tides and Currents Weather Stations Pressure Air Temp Water Temp Dewpoint Dewpoint Depression Visibility Wind Speed Wind Dir Waves Ship Positions

Bay Bridge

Last reported at 2016-Dec-07 06:18 UTC. Time now 2016-Dec-07 08:39 UTC.
Position N 37°29' W 123°20'.

Length 267 m; draft 11.6 m.

Type: Ship (hazmat cat A). MMSI: 354120000.

Date/timePositionNaut miles runAvg speedWind from/ knotsBaromVisibWave heightAir tempDewpointWater temp
2016-Dec-07 06:18N 37°29' W 123°20'810.9
2016-Dec-07 05:34N 37°30' W 123°10'1211.6
2016-Dec-07 04:34N 37°37' W 122°58'1111.2
2016-Dec-07 03:33N 37°43' W 122°46'1111.4
2016-Dec-07 02:33N 37°47' W 122°33'1010.4
2016-Dec-07 01:33N 37°49' W 122°20'1 0.5
2016-Dec-07 00:29N 37°49' W 122°20'0 0.0
2016-Dec-06 23:32N 37°49' W 122°20'0 0.0
2016-Dec-06 22:32N 37°49' W 122°20'0 0.0
2016-Dec-06 21:32N 37°49' W 122°20'0 0.0
2016-Dec-06 20:32N 37°49' W 122°20'0 0.0
2016-Dec-06 18:32N 37°49' W 122°20'0 0.0
2016-Dec-06 17:29N 37°49' W 122°20'0 0.0
2016-Dec-06 16:32N 37°49' W 122°20'0 0.0
2016-Dec-06 15:32N 37°49' W 122°20'0 0.0
2016-Dec-06 14:32N 37°49' W 122°20'0 0.0
2016-Dec-06 13:32N 37°49' W 122°20'0 0.0
2016-Dec-06 12:32N 37°49' W 122°20'0 0.0
2016-Dec-06 11:32N 37°49' W 122°20'0 0.0
2016-Dec-06 10:32N 37°49' W 122°20'0 0.0
2016-Dec-06 09:32N 37°49' W 122°20'0 0.0
2016-Dec-06 08:32N 37°49' W 122°20'0 0.0
2016-Dec-06 07:32N 37°49' W 122°20'0 0.0
2016-Dec-06 06:32N 37°49' W 122°20'0 0.0
2016-Dec-06 05:32N 37°49' W 122°20'0 0.0
2016-Dec-06 04:32N 37°49' W 122°20'0 0.0
2016-Dec-06 03:32N 37°49' W 122°20'0 0.0
2016-Dec-06 02:32N 37°49' W 122°20'0 0.0
2016-Dec-06 01:32N 37°49' W 122°20'8 8.1
2016-Dec-06 00:34N 37°49' W 122°30'1211.8
2016-Dec-05 23:33N 37°40' W 122°40'1818.0
2016-Dec-05 22:32N 37°22' W 122°40'1818.0
2016-Dec-05 21:33N 37°04' W 122°38'1918.7
2016-Dec-05 20:33N 36°47' W 122°30'1918.5
2016-Dec-05 19:33N 36°32' W 122°16'1918.9
2016-Dec-05 18:33N 36°15' W 122°06'1918.7
2016-Dec-05 17:33N 35°58' W 121°56'1818.2
2016-Dec-05 16:33N 35°41' W 121°47'14017.5
2016-Dec-05 08:32N 34°09' W 119°38'2020.2
2016-Dec-05 07:33N 34°04' W 119°15'1514.9
2016-Dec-05 06:33N 33°57' W 118°59'1211.8
2016-Dec-05 05:33N 33°51' W 118°47'1211.8
2016-Dec-05 04:33N 33°45' W 118°34'1211.7
2016-Dec-05 03:33N 33°39' W 118°22'9 9.5
2016-Dec-05 02:33N 33°42' W 118°11'2 2.1
2016-Dec-05 01:31N 33°45' W 118°12'0 0.0
2016-Dec-05 00:31N 33°45' W 118°12'0 0.0
2016-Dec-04 23:31N 33°45' W 118°12'0 0.0
2016-Dec-04 22:31N 33°45' W 118°12'0 0.0
2016-Dec-04 21:31N 33°45' W 118°12'0 0.0
2016-Dec-04 20:28N 33°45' W 118°12'0 0.1
2016-Dec-04 19:31N 33°45' W 118°12'0 0.0
2016-Dec-04 18:28N 33°45' W 118°12'0 0.0
2016-Dec-04 17:31N 33°45' W 118°12'0 0.0
2016-Dec-04 16:28N 33°45' W 118°12'0 0.0
2016-Dec-04 15:31N 33°45' W 118°12'0 0.0
2016-Dec-04 14:31N 33°45' W 118°12'0 0.1
2016-Dec-04 13:31N 33°45' W 118°12'0 0.1
2016-Dec-04 12:31N 33°45' W 118°12'0 0.0
2016-Dec-04 11:31N 33°45' W 118°12'0 0.0
2016-Dec-04 10:31N 33°45' W 118°12'0 0.0
2016-Dec-04 09:31N 33°45' W 118°12'0 0.0
2016-Dec-04 08:31N 33°45' W 118°12'0 0.0
2016-Dec-04 07:31N 33°45' W 118°12'0 0.0
2016-Dec-04 06:31N 33°45' W 118°12'0 0.0
2016-Dec-04 05:28N 33°45' W 118°12'0 0.0
2016-Dec-04 04:31N 33°45' W 118°12'0 0.0
2016-Dec-04 03:31N 33°45' W 118°12'0 0.0
2016-Dec-04 02:31N 33°45' W 118°12'0 0.0
2016-Dec-04 01:31N 33°45' W 118°12'0 0.0
2016-Dec-04 00:34N 33°45' W 118°12'0 0.0
2016-Dec-03 23:28N 33°45' W 118°12'0 0.0
2016-Dec-03 22:28N 33°45' W 118°12'0 0.1
2016-Dec-03 21:30N 33°45' W 118°12'0 0.0
2016-Dec-03 20:31N 33°45' W 118°12'0 0.0
2016-Dec-03 18:25N 33°45' W 118°12'0 0.0
2016-Dec-03 16:33N 33°45' W 118°12'0 0.0
2016-Dec-03 15:09N 33°45' W 118°12'0 0.0
2016-Dec-02 15:24N 33°45' W 118°12'0 0.1
2016-Dec-02 14:30N 33°45' W 118°12'0 0.0
2016-Dec-02 13:30N 33°45' W 118°12'0 0.0
2016-Dec-02 12:33N 33°45' W 118°12'0 0.0
2016-Dec-02 11:33N 33°45' W 118°12'0 0.0
2016-Dec-02 09:30N 33°45' W 118°12'0 0.0
2016-Dec-02 05:30N 33°45' W 118°12'0 0.0
2016-Dec-02 04:24N 33°45' W 118°12'0 0.0
2016-Dec-02 03:18N 33°45' W 118°12'0 0.0
2016-Dec-02 02:18N 33°45' W 118°12'0 0.1
2016-Dec-02 01:33N 33°45' W 118°12'0 0.0
2016-Dec-02 00:33N 33°45' W 118°12'0 0.0
2016-Dec-01 23:33N 33°45' W 118°12'0 0.0
2016-Dec-01 22:33N 33°45' W 118°12'0 0.0
2016-Dec-01 21:33N 33°45' W 118°12'0 0.0
2016-Dec-01 15:12N 33°45' W 118°12'2 0.7
2016-Dec-01 12:32N 33°43' W 118°11'7 6.6
2016-Dec-01 11:33N 33°37' W 118°13'1010.0
2016-Dec-01 10:34N 33°38' W 118°25'1211.7
2016-Dec-01 09:33N 33°44' W 118°37'1211.7
2016-Dec-01 08:33N 33°50' W 118°49'1211.6
2016-Dec-01 07:33N 33°55' W 119°02'1211.6
2016-Dec-01 06:33N 34°01' W 119°14'1111.4
2016-Dec-01 05:33N 34°05' W 119°27'1010.0
2016-Dec-01 04:32N 34°08' W 119°38'10 9.7
2016-Dec-01 03:33N 34°10' W 119°50'10 9.9
2016-Dec-01 02:33N 34°13' W 120°01'11 9.8
2016-Dec-01 01:27N 34°16' W 120°14'11 9.9
2016-Dec-01 00:22N 34°18' W 120°26'911.5
2016-Nov-30 23:33N 34°21' W 120°37'8015.5
2016-Nov-30 18:22N 34°25' W 122°14'23016.7
2016-Nov-30 04:33N 34°53' W 126°52'2221.2
2016-Nov-30 03:30N 35°00' W 127°18'  
Track history (hours):
 
Tides and Currents Weather Stations Pressure Air Temp Water Temp Dewpoint Dewpoint Depression Visibility Wind Speed Wind Dir Waves Ship Positions

Bay Bridge

Last reported at 2016-Dec-07 06:18 UTC. Time now 2016-Dec-07 08:39 UTC.
Position N 37°29' W 123°20'.

Length 267 m; draft 11.6 m.

Type: Ship (hazmat cat A). MMSI: 354120000.

Date/timePositionNaut miles runAvg speedWind from/ knotsBaromVisibWave heightAir tempDewpointWater temp
2016-Dec-07 06:18N 37°29' W 123°20'810.9
2016-Dec-07 05:34N 37°30' W 123°10'1211.6
2016-Dec-07 04:34N 37°37' W 122°58'1111.2
2016-Dec-07 03:33N 37°43' W 122°46'1111.4
2016-Dec-07 02:33N 37°47' W 122°33'1010.4
2016-Dec-07 01:33N 37°49' W 122°20'1 0.5
2016-Dec-07 00:29N 37°49' W 122°20'0 0.0
2016-Dec-06 23:32N 37°49' W 122°20'0 0.0
2016-Dec-06 22:32N 37°49' W 122°20'0 0.0
2016-Dec-06 21:32N 37°49' W 122°20'0 0.0
2016-Dec-06 20:32N 37°49' W 122°20'0 0.0
2016-Dec-06 18:32N 37°49' W 122°20'0 0.0
2016-Dec-06 17:29N 37°49' W 122°20'0 0.0
2016-Dec-06 16:32N 37°49' W 122°20'0 0.0
2016-Dec-06 15:32N 37°49' W 122°20'0 0.0
2016-Dec-06 14:32N 37°49' W 122°20'0 0.0
2016-Dec-06 13:32N 37°49' W 122°20'0 0.0
2016-Dec-06 12:32N 37°49' W 122°20'0 0.0
2016-Dec-06 11:32N 37°49' W 122°20'0 0.0
2016-Dec-06 10:32N 37°49' W 122°20'0 0.0
2016-Dec-06 09:32N 37°49' W 122°20'0 0.0
2016-Dec-06 08:32N 37°49' W 122°20'0 0.0
2016-Dec-06 07:32N 37°49' W 122°20'0 0.0
2016-Dec-06 06:32N 37°49' W 122°20'0 0.0
2016-Dec-06 05:32N 37°49' W 122°20'0 0.0
2016-Dec-06 04:32N 37°49' W 122°20'0 0.0
2016-Dec-06 03:32N 37°49' W 122°20'0 0.0
2016-Dec-06 02:32N 37°49' W 122°20'0 0.0
2016-Dec-06 01:32N 37°49' W 122°20'8 8.1
2016-Dec-06 00:34N 37°49' W 122°30'1211.8
2016-Dec-05 23:33N 37°40' W 122°40'1818.0
2016-Dec-05 22:32N 37°22' W 122°40'1818.0
2016-Dec-05 21:33N 37°04' W 122°38'1918.7
2016-Dec-05 20:33N 36°47' W 122°30'1918.5
2016-Dec-05 19:33N 36°32' W 122°16'1918.9
2016-Dec-05 18:33N 36°15' W 122°06'1918.7
2016-Dec-05 17:33N 35°58' W 121°56'1818.2
2016-Dec-05 16:33N 35°41' W 121°47'14017.5
2016-Dec-05 08:32N 34°09' W 119°38'2020.2
2016-Dec-05 07:33N 34°04' W 119°15'1514.9
2016-Dec-05 06:33N 33°57' W 118°59'1211.8
2016-Dec-05 05:33N 33°51' W 118°47'1211.8
2016-Dec-05 04:33N 33°45' W 118°34'1211.7
2016-Dec-05 03:33N 33°39' W 118°22'9 9.5
2016-Dec-05 02:33N 33°42' W 118°11'2 2.1
2016-Dec-05 01:31N 33°45' W 118°12'0 0.0
2016-Dec-05 00:31N 33°45' W 118°12'0 0.0
2016-Dec-04 23:31N 33°45' W 118°12'0 0.0
2016-Dec-04 22:31N 33°45' W 118°12'0 0.0
2016-Dec-04 21:31N 33°45' W 118°12'0 0.0
2016-Dec-04 20:28N 33°45' W 118°12'0 0.1
2016-Dec-04 19:31N 33°45' W 118°12'0 0.0
2016-Dec-04 18:28N 33°45' W 118°12'0 0.0
2016-Dec-04 17:31N 33°45' W 118°12'0 0.0
2016-Dec-04 16:28N 33°45' W 118°12'0 0.0
2016-Dec-04 15:31N 33°45' W 118°12'0 0.0
2016-Dec-04 14:31N 33°45' W 118°12'0 0.1
2016-Dec-04 13:31N 33°45' W 118°12'0 0.1
2016-Dec-04 12:31N 33°45' W 118°12'0 0.0
2016-Dec-04 11:31N 33°45' W 118°12'0 0.0
2016-Dec-04 10:31N 33°45' W 118°12'0 0.0
2016-Dec-04 09:31N 33°45' W 118°12'0 0.0
2016-Dec-04 08:31N 33°45' W 118°12'0 0.0
2016-Dec-04 07:31N 33°45' W 118°12'0 0.0
2016-Dec-04 06:31N 33°45' W 118°12'0 0.0
2016-Dec-04 05:28N 33°45' W 118°12'0 0.0
2016-Dec-04 04:31N 33°45' W 118°12'0 0.0
2016-Dec-04 03:31N 33°45' W 118°12'0 0.0
2016-Dec-04 02:31N 33°45' W 118°12'0 0.0
2016-Dec-04 01:31N 33°45' W 118°12'0 0.0
2016-Dec-04 00:34N 33°45' W 118°12'0 0.0
2016-Dec-03 23:28N 33°45' W 118°12'0 0.0
2016-Dec-03 22:28N 33°45' W 118°12'0 0.1
2016-Dec-03 21:30N 33°45' W 118°12'0 0.0
2016-Dec-03 20:31N 33°45' W 118°12'0 0.0
2016-Dec-03 18:25N 33°45' W 118°12'0 0.0
2016-Dec-03 16:33N 33°45' W 118°12'0 0.0
2016-Dec-03 15:09N 33°45' W 118°12'0 0.0
2016-Dec-02 15:24N 33°45' W 118°12'0 0.1
2016-Dec-02 14:30N 33°45' W 118°12'0 0.0
2016-Dec-02 13:30N 33°45' W 118°12'0 0.0
2016-Dec-02 12:33N 33°45' W 118°12'0 0.0
2016-Dec-02 11:33N 33°45' W 118°12'0 0.0
2016-Dec-02 09:30N 33°45' W 118°12'0 0.0
2016-Dec-02 05:30N 33°45' W 118°12'0 0.0
2016-Dec-02 04:24N 33°45' W 118°12'0 0.0
2016-Dec-02 03:18N 33°45' W 118°12'0 0.0
2016-Dec-02 02:18N 33°45' W 118°12'0 0.1
2016-Dec-02 01:33N 33°45' W 118°12'0 0.0
2016-Dec-02 00:33N 33°45' W 118°12'0 0.0
2016-Dec-01 23:33N 33°45' W 118°12'0 0.0
2016-Dec-01 22:33N 33°45' W 118°12'0 0.0
2016-Dec-01 21:33N 33°45' W 118°12'0 0.0
2016-Dec-01 15:12N 33°45' W 118°12'2 0.7
2016-Dec-01 12:32N 33°43' W 118°11'7 6.6
2016-Dec-01 11:33N 33°37' W 118°13'1010.0
2016-Dec-01 10:34N 33°38' W 118°25'1211.7
2016-Dec-01 09:33N 33°44' W 118°37'1211.7
2016-Dec-01 08:33N 33°50' W 118°49'1211.6
2016-Dec-01 07:33N 33°55' W 119°02'1211.6
2016-Dec-01 06:33N 34°01' W 119°14'1111.4
2016-Dec-01 05:33N 34°05' W 119°27'1010.0
2016-Dec-01 04:32N 34°08' W 119°38'10 9.7
2016-Dec-01 03:33N 34°10' W 119°50'10 9.9
2016-Dec-01 02:33N 34°13' W 120°01'11 9.8
2016-Dec-01 01:27N 34°16' W 120°14'11 9.9
2016-Dec-01 00:22N 34°18' W 120°26'911.5
2016-Nov-30 23:33N 34°21' W 120°37'8015.5
2016-Nov-30 18:22N 34°25' W 122°14'23016.7
2016-Nov-30 04:33N 34°53' W 126°52'2221.2
2016-Nov-30 03:30N 35°00' W 127°18'  

Dump ship's entire track history